Terminal Aerodrome Forecast
Issued by NWS Grand Rapids, MI

Home | Current Version | Previous Version | Text Only | Print | Product List | Glossary On
Versions: 1 2 3 4 5 6 7 8 9 10 11 12 13 14 15 16 17 18 19
000
FTUS43 KGRR 181100
TAFGRR
TAF
KGRR 181140Z 1812/1912 02005KT P6SM SCT080 BKN250
     FM181400 05011KT P6SM BKN250
     FM182000 09015G25KT P6SM BKN250=

USA.gov is the U.S. government's official web portal to all federal, state and local government web resources and services.